Aérodrome :
LOGIN :

S'inscrire | Disclaimer

   EN    FR    IT 

 










Légende :    VFR   VFR Marginal   IFR   IFR Intensif   IFR Très Intensif
Visi : 
Plafond : 
>= 8 km
>= 3000ft
5 à 8 km
1000 à 3000 ft
1500m à 5 km
500 à 1000 ft
800 à 1500m
200 à 500 ft
< 800m
< 200 ft
Symboles :   Orages  Brouillard  Fortes neiges  Fortes précipitations  Vent > 20 kt
SIGMETs :   Divers  Orages  Givrage  Turbulence  Onde Orograph.  Cendres Volcan.






- Altitude de l'aérodrome : 75 ft
- Code IATA : YEO


EGDY - RNAS Yeovilton

DERNIER METAR :
  • 242150Z 25008KT 9999 FEW030 BKN045 08/06 Q1008 NOSIG RMK BLU BLU

METARs EXPIRÉS :
  • 242120Z 24005KT 9999 SCT040 SCT240 08/05 Q1008 NOSIG RMK BLU BLU
  • 242050Z 26008KT 9999 BKN040 08/05 Q1008 NOSIG RMK BLU BLU
  • 242023Z 26008KT 9999 BKN040 BKN240 08/05 Q1008 NOSIG RMK BLU BLU
  • 241950Z AUTO 27015KT 9999 FEW040/// 09/05 Q1007
  • 241924Z 27017KT 9999 FEW020 SCT035 BKN240 09/05 Q1007 NOSIG RMK BLU BLU

TAF TAF EGDY
Valide du 24 à 15h jusqu'au 25 à 00h UTC


241341Z 2415/2424 22010G20KT 7000 -RA SCT010 OVC020
BECMG 2415/2416 26015G25KT 9999 NSW BKN025
TEMPO 2416/2421 BKN020
BECMG 2418/2420 27010KT



MET'MAP, la Météo Aéronautique d'un coup d'oeil ! - Copyright ORBIFLY Décembre 2007 - Disclaimer

ORBIFLY MET'MAP TEAM :

Programmation & Développement : Alexandra Zaïnal
Sur une idée originale de : Baudouin d'Aumeries
Assistance à la programmation : Marc-Olivier Méhu
Soutien technique & logistique : Manuel Goepfert

Contact : metmap@orbifly.com




SOURCES & CREDITS :

   NOAA